Time;durP1;ratioP1;P1;durP2;ratioP2;P2;SDS_P1;SDS_P2;PMS_P1;PMS_P2;Temp;Humidity;BMP_temperature;BMP_pressure;BME280_temperature;BME280_humidity;BME280_pressure;Samples;Min_cycle;Max_cycle;Signal;HPM_P1;HPM_P2
2022/12/07 00:01:21;;;;;;;11.77;5.50;;;5.40;99.90;;;;;;5101642;28;20028;-75
2022/12/07 00:03:49;;;;;;;11.20;5.82;;;5.40;99.90;;;;;;5096254;28;20051;-75
2022/12/07 00:06:16;;;;;;;10.33;5.83;;;5.40;99.90;;;;;;5108509;28;20081;-74
2022/12/07 00:08:43;;;;;;;10.43;5.37;;;5.40;99.90;;;;;;5108070;28;20182;-75
2022/12/07 00:11:10;;;;;;;10.30;5.70;;;5.40;99.90;;;;;;5111105;28;20028;-75
2022/12/07 00:13:37;;;;;;;9.93;5.93;;;5.40;99.90;;;;;;5113348;28;20039;-75
2022/12/07 00:16:07;;;;;;;9.97;5.90;;;5.40;99.90;;;;;;5110566;28;20485;-74
2022/12/07 00:18:32;;;;;;;8.87;5.40;;;5.40;99.90;;;;;;5095927;28;20469;-75
2022/12/07 00:21:03;;;;;;;12.27;6.10;;;5.40;99.90;;;;;;5104765;28;20035;-75
2022/12/07 00:23:29;;;;;;;12.00;6.20;;;5.30;99.90;;;;;;5092868;28;20126;-75
2022/12/07 00:25:55;;;;;;;11.67;5.57;;;5.30;99.90;;;;;;5090993;28;20166;-76
2022/12/07 00:28:20;;;;;;;10.87;5.83;;;5.30;99.90;;;;;;5095623;28;20106;-74
2022/12/07 00:30:46;;;;;;;10.43;5.33;;;5.30;99.90;;;;;;5106894;28;20410;-75
2022/12/07 00:33:11;;;;;;;11.27;5.87;;;5.30;99.90;;;;;;5102443;28;20028;-75
2022/12/07 00:35:37;;;;;;;9.33;5.67;;;5.30;99.90;;;;;;5098340;28;20474;-75
2022/12/07 00:38:02;;;;;;;13.23;6.20;;;5.20;99.90;;;;;;5098507;28;20030;-75
2022/12/07 00:40:28;;;;;;;10.63;5.50;;;5.30;99.90;;;;;;5096362;28;20023;-75
2022/12/07 00:42:53;;;;;;;10.47;5.97;;;5.30;99.90;;;;;;5103851;28;20388;-74
2022/12/07 00:45:19;;;;;;;11.50;5.80;;;5.20;99.90;;;;;;5092585;28;20024;-75
2022/12/07 00:47:45;;;;;;;11.50;5.17;;;5.30;99.90;;;;;;5091314;28;20035;-75
2022/12/07 00:50:10;;;;;;;10.23;5.47;;;5.30;99.90;;;;;;5108577;28;20062;-75
2022/12/07 00:52:36;;;;;;;13.27;5.73;;;5.20;99.90;;;;;;5107900;28;20028;-76
2022/12/07 00:55:01;;;;;;;12.87;5.90;;;5.30;99.90;;;;;;5099033;28;20020;-76
2022/12/07 00:57:27;;;;;;;12.23;6.33;;;5.30;99.90;;;;;;5102494;28;20061;-75
2022/12/07 00:59:55;;;;;;;9.87;6.00;;;5.30;99.90;;;;;;5108460;28;20094;-75
2022/12/07 01:02:21;;;;;;;11.40;6.20;;;5.20;99.90;;;;;;5092111;28;20024;-76
2022/12/07 01:04:47;;;;;;;11.67;6.40;;;5.20;99.90;;;;;;5097326;28;20047;-75
2022/12/07 01:07:12;;;;;;;9.90;5.87;;;5.20;99.90;;;;;;5112517;28;20408;-75
2022/12/07 01:09:38;;;;;;;10.27;6.10;;;5.20;99.90;;;;;;5112482;28;20035;-75
2022/12/07 01:12:04;;;;;;;13.23;6.27;;;5.20;99.90;;;;;;5093881;28;20461;-75
2022/12/07 01:14:29;;;;;;;12.77;6.27;;;5.20;99.90;;;;;;5111498;28;20030;-75
2022/12/07 01:16:55;;;;;;;11.60;6.87;;;5.10;99.90;;;;;;5111999;28;20062;-75
2022/12/07 01:19:20;;;;;;;12.07;6.33;;;5.20;99.90;;;;;;5112716;28;20457;-75
2022/12/07 01:21:46;;;;;;;14.83;7.30;;;5.10;99.90;;;;;;5111513;28;20101;-75
2022/12/07 01:24:11;;;;;;;14.23;6.93;;;5.10;99.90;;;;;;5099234;28;20032;-75
2022/12/07 01:26:37;;;;;;;15.00;7.10;;;5.10;99.90;;;;;;5102545;28;20433;-77
2022/12/07 01:29:03;;;;;;;12.57;6.80;;;5.10;99.90;;;;;;5119164;27;20066;-75
2022/12/07 01:31:28;;;;;;;17.63;7.20;;;5.10;99.90;;;;;;5105921;28;20039;-75
2022/12/07 01:33:57;;;;;;;12.77;7.23;;;5.10;99.90;;;;;;5114047;28;20032;-75
2022/12/07 01:36:25;;;;;;;14.30;7.33;;;5.10;99.90;;;;;;5101233;28;20066;-75
2022/12/07 01:38:56;;;;;;;15.13;7.60;;;5.00;99.90;;;;;;5106064;28;20024;-74
2022/12/07 01:41:25;;;;;;;12.63;7.13;;;5.00;99.90;;;;;;5119100;27;20448;-74
2022/12/07 01:44:16;;;;;;;13.47;7.60;;;5.00;99.90;;;;;;5102263;28;20392;-75
2022/12/07 01:46:51;;;;;;;13.40;7.13;;;4.90;99.90;;;;;;5097786;28;20024;-76
2022/12/07 01:49:37;;;;;;;12.37;7.47;;;4.90;99.90;;;;;;5109067;28;20034;-75
2022/12/07 01:52:25;;;;;;;14.20;7.63;;;4.90;99.90;;;;;;5116935;28;20032;-75
2022/12/07 01:54:58;;;;;;;14.60;7.20;;;4.90;99.90;;;;;;5104920;28;20179;-74
2022/12/07 01:57:23;;;;;;;16.93;7.80;;;4.90;99.90;;;;;;5119244;27;20060;-75
2022/12/07 01:59:51;;;;;;;16.80;7.93;;;4.90;99.90;;;;;;5118521;28;20435;-74
2022/12/07 02:02:28;;;;;;;17.37;7.93;;;4.90;99.90;;;;;;5115751;28;20028;-75
2022/12/07 02:04:55;;;;;;;14.03;6.97;;;4.80;99.90;;;;;;5105245;28;20027;-74
2022/12/07 02:07:23;;;;;;;13.17;7.53;;;4.90;99.90;;;;;;5111680;28;20046;-75
2022/12/07 02:09:48;;;;;;;18.93;8.50;;;4.90;99.90;;;;;;5117996;28;20031;-75
2022/12/07 02:12:14;;;;;;;15.67;7.60;;;4.90;99.90;;;;;;5117242;28;20372;-75
2022/12/07 02:14:40;;;;;;;17.33;8.30;;;4.90;99.90;;;;;;5119162;27;20023;-75
2022/12/07 02:17:24;;;;;;;13.93;7.77;;;4.80;99.90;;;;;;5116820;28;20471;-75
2022/12/07 02:20:14;;;;;;;16.73;8.23;;;4.80;99.90;;;;;;5101565;28;20024;-75
2022/12/07 02:23:09;;;;;;;17.63;8.57;;;4.80;99.90;;;;;;5098633;28;20031;-75
2022/12/07 02:25:57;;;;;;;14.60;7.50;;;4.80;99.90;;;;;;5111533;28;20038;-75
2022/12/07 02:28:34;;;;;;;15.53;8.77;;;4.80;99.90;;;;;;5115299;27;20013;-76
2022/12/07 02:31:07;;;;;;;15.57;7.63;;;4.80;99.90;;;;;;5104695;28;20024;-75
2022/12/07 02:33:49;;;;;;;15.90;7.77;;;4.80;99.90;;;;;;5104945;27;20035;-75
2022/12/07 02:36:25;;;;;;;15.20;7.93;;;4.80;99.90;;;;;;5095475;28;20056;-75
2022/12/07 02:39:02;;;;;;;16.33;7.43;;;4.80;99.90;;;;;;5103312;28;20027;-75
2022/12/07 02:41:56;;;;;;;15.20;7.93;;;4.90;99.90;;;;;;5105770;28;20035;-75
2022/12/07 02:44:26;;;;;;;17.83;7.90;;;4.80;99.90;;;;;;5114808;28;20048;-75
2022/12/07 02:46:57;;;;;;;15.73;8.27;;;4.80;99.90;;;;;;5106799;28;20531;-75
2022/12/07 02:49:24;;;;;;;12.25;5.80;;;4.80;99.90;;;;;;5106345;28;20027;-75
2022/12/07 02:51:52;;;;;;;15.23;7.87;;;4.70;99.90;;;;;;5115184;27;20042;-74
2022/12/07 02:54:19;;;;;;;14.90;7.43;;;4.70;99.90;;;;;;5115002;28;20507;-75
2022/12/07 02:56:48;;;;;;;17.07;8.10;;;4.70;99.90;;;;;;5115495;28;20045;-75
2022/12/07 02:59:25;;;;;;;14.73;7.10;;;4.70;99.90;;;;;;5113434;28;20115;-75
2022/12/07 03:02:17;;;;;;;15.73;7.67;;;4.70;99.90;;;;;;5115146;28;20063;-75
2022/12/07 03:05:08;;;;;;;14.82;7.63;;;4.70;99.90;;;;;;5114057;28;20031;-75
2022/12/07 03:07:51;;;;;;;16.63;7.60;;;4.70;99.90;;;;;;5115212;28;20090;-75
2022/12/07 03:10:51;;;;;;;15.10;7.57;;;4.60;99.90;;;;;;5113290;28;20016;-75
2022/12/07 03:13:47;;;;;;;15.40;7.20;;;4.60;99.90;;;;;;5114499;28;20070;-75
2022/12/07 03:16:19;;;;;;;14.90;7.73;;;4.60;99.90;;;;;;5113126;28;20067;-75
2022/12/07 03:19:00;;;;;;;16.23;7.63;;;4.70;99.90;;;;;;5113867;28;20030;-75
2022/12/07 03:21:36;;;;;;;17.10;7.87;;;4.70;99.90;;;;;;5114074;28;20126;-75
2022/12/07 03:24:08;;;;;;;15.10;7.50;;;4.70;99.90;;;;;;5114467;28;20099;-75
2022/12/07 03:26:43;;;;;;;15.13;7.32;;;4.70;99.90;;;;;;5114980;28;20051;-75
2022/12/07 03:29:15;;;;;;;13.43;7.10;;;4.60;99.90;;;;;;5112871;28;20036;-75
2022/12/07 03:31:52;;;;;;;15.30;7.40;;;4.60;99.90;;;;;;5113676;28;20032;-74
2022/12/07 03:34:24;;;;;;;15.93;7.07;;;4.50;99.90;;;;;;5114058;28;20062;-75
2022/12/07 03:37:00;;;;;;;14.47;7.50;;;4.50;99.90;;;;;;5114458;28;20028;-75
2022/12/07 03:39:48;;;;;;;15.83;7.63;;;4.50;99.90;;;;;;5114742;28;20020;-75
2022/12/07 03:42:14;;;;;;;12.20;6.77;;;4.40;99.90;;;;;;5112705;28;20207;-74
2022/12/07 03:44:40;;;;;;;17.00;7.57;;;4.40;99.90;;;;;;5114499;28;20491;-75
2022/12/07 03:47:40;;;;;;;13.20;7.33;;;4.40;99.90;;;;;;5112624;28;20502;-74
2022/12/07 03:50:31;;;;;;;14.00;7.43;;;4.40;99.90;;;;;;5090168;28;20058;-75
2022/12/07 03:53:04;;;;;;;13.97;7.03;;;4.40;99.90;;;;;;5113895;28;20105;-75
2022/12/07 03:55:35;;;;;;;14.00;7.17;;;4.40;99.90;;;;;;5113633;28;20037;-76
2022/12/07 03:58:08;;;;;;;14.07;7.53;;;4.40;99.90;;;;;;5113772;28;20024;-75
2022/12/07 04:00:34;;;;;;;17.37;8.20;;;4.40;99.90;;;;;;5113469;28;20112;-76
2022/12/07 04:02:59;;;;;;;14.97;7.33;;;4.40;99.90;;;;;;5112459;28;20066;-76
2022/12/07 04:05:26;;;;;;;14.27;7.23;;;4.40;99.90;;;;;;5113037;28;20081;-76
2022/12/07 04:07:51;;;;;;;15.87;7.87;;;4.40;99.90;;;;;;5112992;28;20020;-76
2022/12/07 04:10:18;;;;;;;15.00;7.33;;;4.40;99.90;;;;;;5113423;28;20050;-76
2022/12/07 04:12:43;;;;;;;14.83;7.70;;;4.40;99.90;;;;;;5114085;28;20107;-76
2022/12/07 04:15:10;;;;;;;15.93;7.43;;;4.40;99.90;;;;;;5111647;28;20442;-75
2022/12/07 04:17:35;;;;;;;15.00;8.37;;;4.40;99.90;;;;;;5113719;28;20028;-75
2022/12/07 04:20:03;;;;;;;14.40;7.30;;;4.40;99.90;;;;;;5113322;28;20372;-74
2022/12/07 04:22:29;;;;;;;14.80;7.63;;;4.40;99.90;;;;;;5112674;28;20023;-75
2022/12/07 04:24:55;;;;;;;17.67;8.60;;;4.40;99.90;;;;;;5112615;28;20464;-75
2022/12/07 04:27:20;;;;;;;16.63;7.90;;;4.40;99.90;;;;;;5112875;28;20030;-75
2022/12/07 04:29:46;;;;;;;15.70;7.60;;;4.40;99.90;;;;;;5112627;28;20028;-75
2022/12/07 04:32:11;;;;;;;14.00;7.17;;;4.40;99.90;;;;;;5113017;28;20024;-74
2022/12/07 04:34:37;;;;;;;15.87;7.97;;;4.50;99.90;;;;;;5112456;28;20030;-75
2022/12/07 04:37:03;;;;;;;17.70;7.73;;;4.40;99.90;;;;;;5111992;28;20224;-75
2022/12/07 04:39:31;;;;;;;14.27;7.70;;;4.40;99.90;;;;;;5112605;28;20034;-76
2022/12/07 04:41:57;;;;;;;16.00;7.57;;;4.40;99.90;;;;;;5112616;28;20028;-76
2022/12/07 04:44:23;;;;;;;18.17;7.77;;;4.40;99.90;;;;;;5113186;28;20059;-76
2022/12/07 04:46:49;;;;;;;15.27;7.57;;;4.40;99.90;;;;;;5113540;28;20042;-76
2022/12/07 04:49:15;;;;;;;15.37;7.80;;;4.40;99.90;;;;;;5111356;28;20023;-75
2022/12/07 04:51:41;;;;;;;15.70;7.70;;;4.40;99.90;;;;;;5112098;28;20034;-75
2022/12/07 04:54:07;;;;;;;15.83;7.80;;;4.40;99.90;;;;;;5111466;28;20077;-74
2022/12/07 04:56:34;;;;;;;15.80;7.47;;;4.40;99.90;;;;;;5111872;28;20464;-75
2022/12/07 04:59:01;;;;;;;17.90;7.67;;;4.40;99.90;;;;;;5112584;28;20023;-74
2022/12/07 05:01:26;;;;;;;15.40;8.00;;;4.40;99.90;;;;;;5111726;28;20023;-75
2022/12/07 05:03:52;;;;;;;20.30;8.30;;;4.40;99.90;;;;;;5111855;28;20076;-75
2022/12/07 05:06:18;;;;;;;16.37;8.20;;;4.40;99.90;;;;;;5111282;28;20027;-75
2022/12/07 05:08:44;;;;;;;16.07;8.23;;;4.40;99.90;;;;;;5112989;28;20072;-75
2022/12/07 05:11:37;;;;;;;15.77;8.07;;;4.40;99.90;;;;;;5111329;28;20065;-74
2022/12/07 05:14:00;;;;;;;16.40;8.50;;;4.40;99.90;;;;;;5112710;28;20023;-75
2022/12/07 05:16:26;;;;;;;17.47;8.53;;;4.40;99.90;;;;;;5110959;28;20096;-75
2022/12/07 05:18:51;;;;;;;17.97;8.17;;;4.40;99.90;;;;;;5111864;28;20023;-75
2022/12/07 05:21:17;;;;;;;14.93;7.57;;;4.40;99.90;;;;;;5104926;28;20032;-75
2022/12/07 05:23:43;;;;;;;18.70;8.30;;;4.40;99.90;;;;;;5104787;28;20069;-75
2022/12/07 05:26:08;;;;;;;16.33;8.37;;;4.40;99.90;;;;;;5095181;28;20123;-74
2022/12/07 05:28:34;;;;;;;17.20;8.47;;;4.50;99.90;;;;;;5111256;28;20034;-75
2022/12/07 05:31:00;;;;;;;15.73;8.00;;;4.40;99.90;;;;;;5101136;28;20114;-74
2022/12/07 05:33:25;;;;;;;16.43;8.33;;;4.40;99.90;;;;;;5102276;28;20024;-75
2022/12/07 05:35:51;;;;;;;19.23;7.87;;;4.40;99.90;;;;;;5095695;28;20020;-74
2022/12/07 05:38:16;;;;;;;19.37;8.93;;;4.40;99.90;;;;;;5093741;28;20103;-75
2022/12/07 05:40:42;;;;;;;15.07;7.93;;;4.40;99.90;;;;;;5112373;28;20080;-77
2022/12/07 05:43:07;;;;;;;17.97;8.73;;;4.40;99.90;;;;;;5100883;28;20212;-77
2022/12/07 05:45:33;;;;;;;17.83;8.23;;;4.40;99.90;;;;;;5105007;28;20020;-75
2022/12/07 05:47:58;;;;;;;15.13;7.57;;;4.40;99.90;;;;;;5111072;28;20037;-75
2022/12/07 05:50:24;;;;;;;17.77;8.20;;;4.40;99.90;;;;;;5094382;28;20034;-75
2022/12/07 05:52:50;;;;;;;18.13;8.50;;;4.40;99.90;;;;;;5110582;28;20020;-75
2022/12/07 05:55:15;;;;;;;13.73;7.43;;;4.40;99.90;;;;;;5110153;28;20028;-75
2022/12/07 05:59:22;;;;;;;18.37;7.37;;;4.40;99.90;;;;;;5095313;28;20407;-75
2022/12/07 06:00:27;;;;;;;17.43;7.93;;;4.40;99.90;;;;;;5095834;28;20035;-74
2022/12/07 06:02:52;;;;;;;16.80;8.23;;;4.40;99.90;;;;;;5102043;28;20036;-73
2022/12/07 06:05:18;;;;;;;13.60;7.80;;;4.30;99.90;;;;;;5101959;28;20038;-75
2022/12/07 06:07:43;;;;;;;15.50;7.33;;;4.30;99.90;;;;;;5094678;28;20468;-75
2022/12/07 06:10:09;;;;;;;17.67;8.23;;;4.40;99.90;;;;;;5092094;28;20032;-75
2022/12/07 06:12:39;;;;;;;13.90;7.73;;;4.30;99.90;;;;;;5094520;28;20035;-75
2022/12/07 06:15:05;;;;;;;14.87;8.00;;;4.30;99.90;;;;;;5104786;28;20011;-74
2022/12/07 06:17:31;;;;;;;14.60;7.93;;;4.30;99.90;;;;;;5109434;28;20028;-75
2022/12/07 06:19:57;;;;;;;15.50;8.13;;;4.30;99.90;;;;;;5098633;28;20093;-76
2022/12/07 06:22:22;;;;;;;14.33;7.63;;;4.30;99.90;;;;;;5099705;28;20043;-75
2022/12/07 06:24:48;;;;;;;17.73;8.07;;;4.30;99.90;;;;;;5114488;28;20541;-75
2022/12/07 06:27:13;;;;;;;15.73;7.93;;;4.30;99.90;;;;;;5102307;28;20062;-75
2022/12/07 06:29:39;;;;;;;15.67;7.77;;;4.40;99.90;;;;;;5108738;28;20396;-75
2022/12/07 06:32:05;;;;;;;17.10;8.13;;;4.40;99.90;;;;;;5096563;28;20081;-74
2022/12/07 06:34:30;;;;;;;19.53;7.93;;;4.30;99.90;;;;;;5109086;28;20096;-75
2022/12/07 06:36:56;;;;;;;18.10;8.10;;;4.40;99.90;;;;;;5103187;28;20080;-75
2022/12/07 06:39:25;;;;;;;17.17;8.90;;;4.40;99.90;;;;;;5100405;28;20020;-74
2022/12/07 06:41:57;;;;;;;16.90;8.00;;;4.30;99.90;;;;;;5110352;28;20061;-74
2022/12/07 06:44:23;;;;;;;21.10;8.03;;;4.30;99.90;;;;;;5093114;28;20028;-74
2022/12/07 06:46:50;;;;;;;19.30;8.63;;;4.30;99.90;;;;;;5101099;28;20024;-75
2022/12/07 06:49:15;;;;;;;15.57;7.83;;;4.30;99.90;;;;;;5112229;28;20027;-74
2022/12/07 06:51:41;;;;;;;16.87;7.47;;;4.30;99.90;;;;;;5108675;28;20031;-75
2022/12/07 06:54:11;;;;;;;16.50;7.50;;;4.30;99.90;;;;;;5113295;28;20027;-74
2022/12/07 06:56:37;;;;;;;18.10;8.40;;;4.30;99.90;;;;;;5113663;28;20027;-75
2022/12/07 06:59:06;;;;;;;18.97;8.43;;;4.30;99.90;;;;;;5104366;28;20095;-74
2022/12/07 07:01:32;;;;;;;16.50;8.07;;;4.20;99.90;;;;;;5108308;28;20038;-75
2022/12/07 07:03:58;;;;;;;14.87;7.97;;;4.30;99.90;;;;;;5098395;28;20028;-76
2022/12/07 07:06:24;;;;;;;14.50;7.40;;;4.30;99.90;;;;;;5110151;28;20027;-76
2022/12/07 07:08:49;;;;;;;14.97;7.30;;;4.30;99.90;;;;;;5102610;28;20047;-76
2022/12/07 07:11:15;;;;;;;15.07;7.93;;;4.30;99.90;;;;;;5101353;28;20122;-76
2022/12/07 07:13:41;;;;;;;14.97;7.83;;;4.30;99.90;;;;;;5110299;28;20023;-76
2022/12/07 07:16:07;;;;;;;16.30;8.17;;;4.30;99.90;;;;;;5095341;28;20051;-74
2022/12/07 07:18:33;;;;;;;16.87;7.57;;;4.30;99.90;;;;;;5096281;28;20024;-73
2022/12/07 07:20:58;;;;;;;15.70;7.83;;;4.30;99.90;;;;;;5099095;28;20128;-74
2022/12/07 07:23:24;;;;;;;14.07;7.53;;;4.30;99.90;;;;;;5109291;28;20115;-74
2022/12/07 07:25:50;;;;;;;15.00;7.47;;;4.30;99.90;;;;;;5097210;28;20366;-75
2022/12/07 07:28:16;;;;;;;14.53;7.60;;;4.30;99.90;;;;;;5095307;28;20020;-74
2022/12/07 07:30:42;;;;;;;15.80;7.47;;;4.30;99.90;;;;;;5109444;28;20473;-74
2022/12/07 07:33:09;;;;;;;16.67;7.97;;;4.20;99.90;;;;;;5102216;28;20062;-75
2022/12/07 07:35:34;;;;;;;15.50;7.43;;;4.30;99.90;;;;;;5099705;28;20042;-74
2022/12/07 07:38:01;;;;;;;15.67;7.80;;;4.30;99.90;;;;;;5110506;28;20465;-74
2022/12/07 07:40:29;;;;;;;15.33;7.47;;;4.30;99.90;;;;;;5096482;28;20027;-74
2022/12/07 07:42:54;;;;;;;13.43;6.77;;;4.30;99.90;;;;;;5103600;28;20888;-74
2022/12/07 07:45:22;;;;;;;15.50;7.40;;;4.30;99.90;;;;;;5092798;28;20107;-76
2022/12/07 07:47:48;;;;;;;14.33;6.87;;;4.30;99.90;;;;;;5108800;28;20033;-75
2022/12/07 07:50:15;;;;;;;14.50;7.43;;;4.30;99.90;;;;;;5095887;27;20032;-75
2022/12/07 07:52:40;;;;;;;18.57;7.70;;;4.30;99.90;;;;;;5112394;28;20027;-74
2022/12/07 07:55:08;;;;;;;19.30;6.90;;;4.30;99.90;;;;;;5112163;28;20012;-74
2022/12/07 07:57:34;;;;;;;14.43;7.47;;;4.40;99.90;;;;;;5099595;27;20077;-75
2022/12/07 08:00:00;;;;;;;16.03;7.73;;;4.40;99.90;;;;;;5110107;28;20031;-75
2022/12/07 08:02:25;;;;;;;17.20;7.53;;;4.40;99.90;;;;;;5097568;28;20623;-75
2022/12/07 08:04:51;;;;;;;14.87;7.37;;;4.50;99.90;;;;;;5105419;28;20020;-74
2022/12/07 08:07:16;;;;;;;15.43;7.07;;;4.50;99.90;;;;;;5103449;28;20426;-74
2022/12/07 08:09:42;;;;;;;16.17;7.60;;;4.50;99.90;;;;;;5096562;28;20035;-74
2022/12/07 08:12:08;;;;;;;15.57;7.50;;;4.40;99.90;;;;;;5107674;28;20032;-74
2022/12/07 08:14:34;;;;;;;15.97;7.33;;;4.40;99.90;;;;;;5098781;28;20138;-73
2022/12/07 08:17:00;;;;;;;15.70;7.33;;;4.50;99.90;;;;;;5107875;28;20459;-74
2022/12/07 08:19:26;;;;;;;19.03;8.10;;;4.40;99.90;;;;;;5112796;28;20055;-73
2022/12/07 08:21:51;;;;;;;14.00;7.20;;;4.50;99.90;;;;;;5107456;28;20456;-73
2022/12/07 08:24:17;;;;;;;15.00;6.93;;;4.50;99.90;;;;;;5112645;28;20031;-74
2022/12/07 08:26:43;;;;;;;15.93;7.27;;;4.50;99.90;;;;;;5104551;28;20137;-74
2022/12/07 08:29:09;;;;;;;14.70;7.17;;;4.50;99.90;;;;;;5101767;28;20532;-74
2022/12/07 08:31:35;;;;;;;14.57;7.63;;;4.50;99.90;;;;;;5097852;27;20381;-74
2022/12/07 08:34:00;;;;;;;14.33;7.20;;;4.50;99.90;;;;;;5108988;28;20393;-74
2022/12/07 08:36:26;;;;;;;15.40;7.27;;;4.40;99.90;;;;;;5090928;28;20031;-75
2022/12/07 08:38:52;;;;;;;13.13;6.83;;;4.40;99.90;;;;;;5101682;28;20027;-75
2022/12/07 08:41:17;;;;;;;14.23;6.93;;;4.40;99.90;;;;;;5105021;28;20031;-74
2022/12/07 08:43:43;;;;;;;13.30;6.40;;;4.40;99.90;;;;;;5097379;28;20034;-74
2022/12/07 08:46:09;;;;;;;13.13;6.60;;;4.40;99.90;;;;;;5109902;28;20175;-74
2022/12/07 08:48:37;;;;;;;15.50;6.97;;;4.30;99.90;;;;;;5106716;28;20020;-75
2022/12/07 08:51:03;;;;;;;15.03;6.63;;;4.40;99.90;;;;;;5100438;28;20046;-74
2022/12/07 08:53:30;;;;;;;16.67;7.33;;;4.40;99.90;;;;;;5111141;28;20472;-74
2022/12/07 08:55:57;;;;;;;14.13;7.37;;;4.40;99.90;;;;;;5111675;28;20023;-74
2022/12/07 08:58:23;;;;;;;14.53;6.60;;;4.50;99.90;;;;;;5106178;28;20027;-75
2022/12/07 09:00:49;;;;;;;15.97;7.03;;;4.50;99.90;;;;;;5092682;28;20026;-74
2022/12/07 09:03:14;;;;;;;16.00;7.03;;;4.60;99.90;;;;;;5102663;28;20027;-73
2022/12/07 09:05:40;;;;;;;14.77;6.70;;;4.60;99.90;;;;;;5110959;28;20118;-74
2022/12/07 09:08:06;;;;;;;14.17;6.60;;;4.60;99.90;;;;;;5110683;28;20426;-75
2022/12/07 09:10:32;;;;;;;13.60;6.73;;;4.60;99.90;;;;;;5110613;28;20043;-73
2022/12/07 09:13:00;;;;;;;15.53;7.00;;;4.60;99.90;;;;;;5111902;28;20066;-74
2022/12/07 09:15:27;;;;;;;13.27;6.50;;;4.60;99.90;;;;;;5107669;28;20059;-75
2022/12/07 09:17:53;;;;;;;13.03;6.23;;;4.70;99.90;;;;;;5110508;28;20081;-74
2022/12/07 09:20:18;;;;;;;12.93;6.43;;;4.70;99.90;;;;;;5110431;28;20028;-73
2022/12/07 09:22:44;;;;;;;13.17;6.80;;;4.70;99.90;;;;;;5109908;28;20032;-74
2022/12/07 09:25:10;;;;;;;12.53;6.37;;;4.80;99.90;;;;;;5111440;28;20481;-74
2022/12/07 09:27:35;;;;;;;13.27;6.07;;;4.80;99.90;;;;;;5110550;28;20369;-74
2022/12/07 09:30:01;;;;;;;14.13;6.00;;;4.80;99.90;;;;;;5110675;28;20020;-75
2022/12/07 09:32:27;;;;;;;13.40;6.03;;;4.80;99.90;;;;;;5111702;28;20091;-74
2022/12/07 09:34:52;;;;;;;14.07;6.93;;;4.90;99.90;;;;;;5102190;28;20055;-74
2022/12/07 09:37:18;;;;;;;11.17;6.20;;;5.00;99.90;;;;;;5103849;28;20077;-74
2022/12/07 09:39:44;;;;;;;12.67;6.30;;;5.00;99.90;;;;;;5099184;28;20032;-73
2022/12/07 09:42:29;;;;;;;11.77;6.23;;;5.10;99.90;;;;;;5102941;28;20032;-76
2022/12/07 09:44:55;;;;;;;14.37;6.87;;;5.10;99.90;;;;;;5114756;28;20035;-74
2022/12/07 09:47:21;;;;;;;14.30;7.03;;;5.10;99.90;;;;;;5102459;28;20088;-75
2022/12/07 09:49:46;;;;;;;12.93;6.40;;;5.10;99.90;;;;;;5110665;28;20380;-76
2022/12/07 09:52:12;;;;;;;11.40;6.00;;;5.10;99.90;;;;;;5111624;28;20088;-78
2022/12/07 09:54:42;;;;;;;13.17;6.83;;;5.10;99.90;;;;;;5108659;28;20024;-77
2022/12/07 09:57:10;;;;;;;13.30;6.27;;;5.10;99.90;;;;;;5094232;28;20035;-75
2022/12/07 09:59:36;;;;;;;15.83;6.90;;;5.20;99.90;;;;;;5109964;28;20030;-76
2022/12/07 10:02:24;;;;;;;12.80;5.57;;;5.30;99.90;;;;;;5097566;28;20028;-77
2022/12/07 10:04:50;;;;;;;14.43;6.30;;;5.40;99.90;;;;;;5115346;28;20035;-77
2022/12/07 10:07:15;;;;;;;14.23;6.50;;;5.30;99.90;;;;;;5113501;28;20032;-75
2022/12/07 10:09:42;;;;;;;17.70;6.87;;;5.40;99.90;;;;;;5111951;28;20528;-79
2022/12/07 10:12:11;;;;;;;15.30;7.40;;;5.30;99.90;;;;;;5111193;28;20381;-75
2022/12/07 10:14:40;;;;;;;12.93;6.50;;;5.40;99.90;;;;;;5095938;28;20035;-76
2022/12/07 10:17:30;;;;;;;14.60;6.30;;;5.30;99.90;;;;;;5100415;28;20056;-74
2022/12/07 10:20:11;;;;;;;13.63;6.70;;;5.40;99.90;;;;;;5112124;28;20469;-75
2022/12/07 10:22:37;;;;;;;11.67;5.93;;;5.30;99.90;;;;;;5107197;28;20031;-75
2022/12/07 10:25:19;;;;;;;13.63;6.60;;;5.30;99.90;;;;;;5094233;28;20385;-76
2022/12/07 10:28:17;;;;;;;15.90;7.00;;;5.40;99.90;;;;;;5110750;28;20377;-77
2022/12/07 10:30:59;;;;;;;12.07;6.33;;;5.40;99.90;;;;;;5109577;28;20055;-77
2022/12/07 10:33:38;;;;;;;13.82;6.30;;;5.40;99.90;;;;;;5107699;28;20020;-77
2022/12/07 10:36:37;;;;;;;12.57;6.10;;;5.40;99.90;;;;;;5095475;28;20391;-79
2022/12/07 10:39:13;;;;;;;12.70;6.50;;;5.30;99.90;;;;;;5067331;28;20404;-77
2022/12/07 10:41:57;;;;;;;10.93;5.60;;;5.30;99.90;;;;;;5095078;28;20032;-76
2022/12/07 10:44:26;;;;;;;13.07;6.30;;;5.20;99.90;;;;;;5099129;28;20024;-77
2022/12/07 10:47:07;;;;;;;12.10;5.77;;;5.20;99.90;;;;;;5113619;28;20068;-77
2022/12/07 10:50:10;;;;;;;13.23;5.93;;;5.20;99.90;;;;;;5115123;28;20027;-77
2022/12/07 10:53:04;;;;;;;13.30;6.13;;;5.10;99.90;;;;;;5113595;28;20439;-77
2022/12/07 10:55:41;;;;;;;13.80;6.40;;;5.10;99.90;;;;;;5112959;28;20100;-76
2022/12/07 10:58:26;;;;;;;14.27;6.83;;;5.20;99.90;;;;;;5112068;28;20030;-76
2022/12/07 11:00:57;;;;;;;13.07;6.67;;;5.20;99.90;;;;;;5113501;28;20154;-77
2022/12/07 11:03:34;;;;;;;17.48;6.68;;;5.10;99.90;;;;;;5100583;28;20052;-78
2022/12/07 11:06:22;;;;;;;13.27;6.10;;;5.20;99.90;;;;;;5095768;28;20103;-78
2022/12/07 11:09:02;;;;;;;12.13;6.70;;;5.20;99.90;;;;;;5095178;28;20020;-78
2022/12/07 11:11:45;;;;;;;14.93;6.77;;;5.30;99.90;;;;;;5110457;28;20076;-78
2022/12/07 11:14:28;;;;;;;13.57;6.57;;;5.30;99.90;;;;;;5104931;28;20027;-75
2022/12/07 11:17:20;;;;;;;17.93;6.40;;;5.50;99.90;;;;;;5089109;28;20071;-75
2022/12/07 11:20:14;;;;;;;15.25;7.53;;;5.60;99.90;;;;;;5112489;28;20016;-78
2022/12/07 11:22:58;;;;;;;12.47;6.57;;;5.50;99.90;;;;;;5094689;28;20042;-78
2022/12/07 11:26:02;;;;;;;13.67;6.90;;;5.50;99.90;;;;;;5108931;28;20109;-78
2022/12/07 11:28:58;;;;;;;12.93;6.43;;;5.50;99.90;;;;;;5103203;28;20020;-79
2022/12/07 11:31:51;;;;;;;14.43;7.30;;;5.40;99.90;;;;;;5106811;28;20088;-77
2022/12/07 11:34:29;;;;;;;12.23;6.73;;;5.50;99.90;;;;;;5100748;28;20384;-78
2022/12/07 11:36:57;;;;;;;13.53;6.70;;;5.40;99.90;;;;;;5111827;28;20019;-88
2022/12/07 11:39:22;;;;;;;16.70;6.47;;;5.50;99.90;;;;;;5100773;28;20136;-91
2022/12/07 11:41:52;;;;;;;15.13;6.40;;;5.50;99.90;;;;;;5113430;28;20064;-79
2022/12/07 11:44:42;;;;;;;19.67;7.30;;;5.50;99.90;;;;;;5113250;28;20544;-90
2022/12/07 11:47:16;;;;;;;13.47;6.60;;;5.60;99.90;;;;;;5113362;28;20047;-79
2022/12/07 11:49:53;;;;;;;14.43;6.57;;;5.50;99.90;;;;;;5109387;28;20023;-90
2022/12/07 11:52:30;;;;;;;11.07;6.10;;;5.50;99.90;;;;;;5102867;28;20040;-89
2022/12/07 11:54:59;;;;;;;12.83;6.70;;;5.50;99.90;;;;;;5104356;28;20024;-87
2022/12/07 11:57:33;;;;;;;11.97;6.00;;;5.50;99.90;;;;;;5107044;28;20023;-92
2022/12/07 12:00:05;;;;;;;13.67;6.67;;;5.40;99.90;;;;;;5112376;28;20200;-91
2022/12/07 12:03:04;;;;;;;12.43;6.50;;;5.50;99.90;;;;;;5115896;28;20036;-89
2022/12/07 12:05:30;;;;;;;16.83;7.03;;;5.60;99.90;;;;;;5115896;28;20039;-91
2022/12/07 12:08:22;;;;;;;17.17;7.33;;;5.50;99.90;;;;;;5116920;28;20036;-90
2022/12/07 12:11:13;;;;;;;15.97;7.50;;;5.50;99.90;;;;;;5115678;28;20157;-87
2022/12/07 12:14:01;;;;;;;13.60;6.07;;;5.60;99.90;;;;;;5107770;28;20028;-91
2022/12/07 12:16:36;;;;;;;13.10;6.20;;;5.60;99.90;;;;;;5105442;28;20204;-87
2022/12/07 12:19:20;;;;;;;13.10;6.13;;;5.60;99.90;;;;;;5098106;28;20016;-81
2022/12/07 12:21:48;;;;;;;12.33;6.77;;;5.60;99.90;;;;;;5112952;28;20139;-79
2022/12/07 12:24:23;;;;;;;12.17;6.23;;;5.70;99.90;;;;;;5108310;28;20028;-76
2022/12/07 12:26:53;;;;;;;13.13;6.60;;;5.70;99.90;;;;;;5092285;28;20504;-79
2022/12/07 12:29:40;;;;;;;13.43;7.03;;;5.70;99.90;;;;;;5088106;28;20072;-78
2022/12/07 12:32:23;;;;;;;14.67;6.33;;;5.60;99.90;;;;;;5099543;28;20461;-76
2022/12/07 12:35:23;;;;;;;15.23;6.33;;;5.60;99.90;;;;;;5104649;28;20027;-78
2022/12/07 12:37:51;;;;;;;12.40;5.83;;;5.60;99.90;;;;;;5092045;28;20027;-77
2022/12/07 12:40:17;;;;;;;14.57;6.47;;;5.80;99.90;;;;;;5101742;28;20427;-77
2022/12/07 12:42:51;;;;;;;13.70;6.63;;;5.90;99.90;;;;;;5103665;28;20020;-82
2022/12/07 12:45:26;;;;;;;13.47;6.77;;;6.00;99.90;;;;;;5111851;28;20063;-81
2022/12/07 12:47:56;;;;;;;14.23;6.73;;;5.90;99.90;;;;;;5104130;28;20024;-80
2022/12/07 12:50:29;;;;;;;13.43;6.00;;;6.00;99.90;;;;;;5107218;28;20130;-81
2022/12/07 12:53:17;;;;;;;12.47;6.50;;;6.00;99.90;;;;;;5105289;28;20372;-77
2022/12/07 12:55:42;;;;;;;13.67;6.43;;;5.90;99.90;;;;;;5110813;28;20015;-76
2022/12/07 12:58:31;;;;;;;13.87;6.77;;;5.90;99.90;;;;;;5108983;28;20473;-77
2022/12/07 13:01:36;;;;;;;14.07;6.70;;;5.80;99.90;;;;;;5091091;28;20031;-76
2022/12/07 13:04:13;;;;;;;13.93;6.73;;;5.70;99.90;;;;;;5109449;28;20553;-77
2022/12/07 13:06:41;;;;;;;13.07;6.40;;;5.70;99.90;;;;;;5103591;28;20035;-77
2022/12/07 13:09:19;;;;;;;16.23;7.03;;;5.70;99.90;;;;;;5098680;28;20050;-76